• Join FlightAware (Why Join?)
  • Login
  • US Flag 
09:52AM EST


 

Airport Tracker/Info


-or-


 

Live Flight TrackerFlight Track Log ✈ VNR160 ✈ 19-Apr-2013 ✈ KPHL - KBCT

Flight Track Log - Related Links

Times and Time Zones

All times are in EDT time to prevent confusion due to time zone crossing. See the VNR160 flight status page for this flight to view local times or setup timezone preferences in your user account.

Time Position Orientation Groundspeed Altitude Reporting Facility
EDT Latitude Longitude Course Direction KTS MPH feet Rate Location/Type
03:11PM 39.8358 -75.2853 185° South 145 167 2,100  Level FAA TRACON SMA TRACON (SMA)
03:11PM 39.8219 -75.2906 196° South 161 185 2,700 1,920 Climbing FAA TRACON SMA TRACON (SMA)
03:11PM 39.8086 -75.2961 198° South 163 188 3,400 2,700 Climbing FAA TRACON SMA TRACON (SMA)
03:12PM 39.7931 -75.3028 198° South 156 180 4,500 2,880 Climbing FAA TRACON SMA TRACON (SMA)
03:12PM 39.7808 -75.3047 187° South 139 160 5,400 2,100 Climbing FAA TRACON SMA TRACON (SMA)
03:12PM 39.7683 -75.3064 186° South 152 175 5,900 1,800 Climbing FAA TRACON SMA TRACON (SMA)
03:13PM 39.7528 -75.3092 188° South 159 183 6,600 1,800 Climbing FAA TRACON SMA TRACON (SMA)
03:13PM 39.7372 -75.3103 183° South 165 190 7,100 1,320 Climbing FAA TRACON SMA TRACON (SMA)
03:13PM 39.7214 -75.3117 184° South 184 212 7,500 1,200 Climbing FAA TRACON SMA TRACON (SMA)
03:14PM 39.7017 -75.3144 186° South 201 231 7,900 900 Climbing FAA TRACON SMA TRACON (SMA)
03:14PM 39.6825 -75.3144 180° South 211 243 8,100 900 Climbing FAA TRACON SMA TRACON (SMA)
03:14PM 39.6631 -75.3156 183° South 216 249 8,500 1,200 Climbing FAA TRACON SMA TRACON (SMA)
03:15PM 39.6394 -75.3175 184° South 217 250 8,900 540 Climbing FAA TRACON SMA TRACON (SMA)
03:15PM 39.6203 -75.3186 183° South 220 253 8,900  Level FAA TRACON SMA TRACON (SMA)
03:15PM 39.6011 -75.3200 183° South 224 258 8,900  Level FAA TRACON SMA TRACON (SMA)
03:16PM 39.4295 -75.3338 185° South  Level FlightAware Approximate
03:16PM 39.5756 -75.3219 183° South 233 268 8,900  Level FAA TRACON SMA TRACON (SMA)
03:16PM 39.5564 -75.3231 183° South 236 272 8,900  Level FAA TRACON SMA TRACON (SMA)
03:16PM 39.5347 -75.3247 183° South 237 273 8,900  Level FAA TRACON SMA TRACON (SMA)
03:17PM 39.5094 -75.3267 183° South 237 273 8,900  Level FAA TRACON SMA TRACON (SMA)
03:17PM 39.4892 -75.3286 184° South 237 273 8,900  Level FAA TRACON SMA TRACON (SMA)
03:17PM 39.4656 -75.3331 188° South 237 273 8,900  Level FAA TRACON SMA TRACON (SMA)
03:18PM 39.4447 -75.3375 189° South 236 272 8,900  Level FAA TRACON SMA TRACON (SMA)
03:18PM 39.4236 -75.3414 188° South 238 274 8,900  Level FAA TRACON SMA TRACON (SMA)
03:18PM 39.4031 -75.3450 188° South 239 275 8,900 600 Level FAA TRACON SMA TRACON (SMA)
03:19PM 39.3783 -75.3497 188° South 235 270 9,300 1,500 Climbing FAA TRACON SMA TRACON (SMA)
03:19PM 39.3592 -75.3531 188° South 231 266 9,900 1,800 Climbing FAA TRACON SMA TRACON (SMA)
03:19PM 39.3403 -75.3561 187° South 226 260 10,500 1,860 Climbing FAA TRACON SMA TRACON (SMA)
03:20PM 39.3172 -75.3600 187° South 220 253 11,200 1,800 Climbing FAA TRACON SMA TRACON (SMA)
03:20PM 39.2989 -75.3644 191° South 219 252 11,700 1,680 Climbing FAA TRACON SMA TRACON (SMA)
03:20PM 39.2803 -75.3678 188° South 218 251 12,300 1,620 Climbing FAA TRACON SMA TRACON (SMA)
03:21PM 39.2619 -75.3706 187° South 218 251 12,800 1,080 Climbing FAA TRACON SMA TRACON (SMA)
03:21PM 39.2431 -75.3733 186° South 216 249 13,400 600 Climbing FAA TRACON SMA TRACON (SMA)
03:22PM 39.2431 -75.3733 210° Southwest 216 249 13,400 2,100 Level FAA TRACON SMA TRACON (SMA)
03:23PM 39.1133 -75.3964 188° South 209 241 17,400 2,100 Climbing Washington Center
03:24PM 39.0508 -75.4072 188° South 222 255 18,800 1,560 Climbing Washington Center
03:25PM 38.9861 -75.4181 187° South 233 268 20,600 2,040 Climbing Washington Center
03:26PM 38.9278 -75.4236 184° South 233 268 22,900 1,680 Climbing Washington Center
03:27PM 38.8672 -75.4317 186° South 222 255 24,000 900 Climbing Washington Center
03:28PM 38.8006 -75.4425 187° South 222 255 24,700 720 Climbing Washington Center
03:29PM 38.7297 -75.4533 187° South 248 285 25,500 1,140 Climbing Washington Center
03:30PM 38.6547 -75.4642 186° South 266 306 27,000 1,500 Climbing Washington Center
03:31PM 38.5858 -75.4747 187° South 266 306 28,500 1,200 Climbing Washington Center
03:32PM 38.5214 -75.4908 191° South 251 289 29,500 660 Climbing Washington Center
03:33PM 38.4503 -75.4964 184° South 251 289 29,900 240 Climbing Washington Center
03:34PM 38.3753 -75.5069 186° South 262 302 30,000  Climbing Washington Center
03:35PM 38.3003 -75.5494 204° Southwest 272 313 30,000  Level Washington Center
03:36PM 38.2356 -75.6103 216° Southwest 283 326 30,000  Level Washington Center
03:37PM 38.1647 -75.6764 216° Southwest 306 352 30,000  Level Washington Center
03:38PM 38.0958 -75.7447 218° Southwest 316 364 30,000  Level Washington Center
03:39PM 38.0375 -75.8053 219° Southwest 316 364 30,000  Level Washington Center
03:40PM 37.9622 -75.8683 213° Southwest 311 358 30,000  Level Washington Center
03:41PM 37.8933 -75.9311 216° Southwest 305 351 30,000  Level Washington Center
03:42PM 37.8408 -75.9808 217° Southwest 305 351 30,000  Level Washington Center
03:43PM 37.7719 -76.0517 219° Southwest 300 345 30,000  Level Washington Center
03:44PM 37.7050 -76.1142 216° Southwest 300 345 30,000  Level Washington Center
03:45PM 37.6275 -76.1792 214° Southwest 300 345 30,000  Level Washington Center
03:46PM 37.5625 -76.2389 216° Southwest 300 345 30,000  Level Washington Center
03:47PM 37.4953 -76.3011 216° Southwest 300 345 30,000 300 Level Washington Center
03:48PM 37.4303 -76.3608 216° Southwest 300 345 30,700 840 Climbing Washington Center
03:49PM 37.3694 -76.4150 215° Southwest 289 333 31,700 600 Climbing Washington Center
03:50PM 37.3106 -76.4692 216° Southwest 278 320 32,000 120 Climbing Washington Center
03:51PM 37.2436 -76.5283 215° Southwest 278 320 32,000  Level Washington Center
03:52PM 37.1783 -76.5928 218° Southwest 295 339 32,000  Level Washington Center
03:53PM 37.1089 -76.6519 214° Southwest 300 345 32,000  Level Washington Center
03:54PM 37.0417 -76.7133 216° Southwest 300 345 32,000  Level Washington Center
03:55PM 36.9928 -76.7958 233° Southwest 293 337 32,000  Level Washington Center
03:56PM 36.9481 -76.8861 238° Southwest 299 344 32,000  Level Washington Center
03:57PM 36.9033 -76.9711 237° Southwest 299 344 32,000  Level Washington Center
03:58PM 36.8339 -77.0244 212° Southwest 289 333 32,000  Level Washington Center
03:59PM 36.7522 -77.0514 195° South 294 338 32,000  Level Washington Center
04:00PM 36.6664 -77.0833 197° South 307 353 32,000  Level Washington Center
04:01PM 36.5867 -77.1131 197° South 312 359 32,000  Level Washington Center
04:02PM 36.5050 -77.1450 197° South 312 359 32,000  Level Washington Center
04:03PM 36.4314 -77.1719 196° South 307 353 32,000  Level Washington Center
04:04PM 36.3517 -77.2039 198° South 307 353 32,000  Level Washington Center
04:05PM 36.2681 -77.2278 193° South 307 353 32,000  Level Washington Center
04:06PM 36.1883 -77.2622 199° South 307 353 32,000  Level Washington Center
04:07PM 36.1128 -77.2889 196° South 301 346 32,000  Level Washington Center
04:08PM 36.0308 -77.3181 196° South 301 346 32,000  Level Washington Center
04:09PM 35.9511 -77.3497 198° South 306 352 32,000  Level Washington Center
04:10PM 35.8714 -77.3786 196° South 306 352 32,000  Level Washington Center
04:11PM 35.7856 -77.4047 194° South 306 352 32,000  Level Washington Center
04:12PM 35.7058 -77.4364 198° South 306 352 32,000  Level Washington Center
04:13PM 35.6197 -77.4675 196° South 306 352 32,000  Level Washington Center
04:14PM 35.5358 -77.4986 197° South 312 359 32,000  Level Washington Center
04:15PM 35.4519 -77.5272 196° South 312 359 32,000  Level Washington Center
04:16PM 35.3700 -77.5636 200° South 317 365 32,000  Level Washington Center
04:17PM 35.3042 -77.6331 221° Southwest 317 365 32,000  Level Washington Center
04:18PM 35.2383 -77.7003 220° Southwest 312 359 32,000  Level Washington Center
04:19PM 35.1722 -77.7669 220° Southwest 312 359 32,000  Level Washington Center
04:20PM 35.1064 -77.8339 220° Southwest 312 359 32,000  Level Washington Center
04:21PM 35.0383 -77.9006 219° Southwest 312 359 32,000  Level Washington Center
04:22PM 34.9744 -77.9697 222° Southwest 312 359 32,000  Level Washington Center
04:23PM 34.9106 -78.0361 220° Southwest 312 359 32,000  Level Washington Center
04:24PM 34.8444 -78.1050 221° Southwest 318 366 32,000  Level Washington Center
04:28PM 34.5858 -78.3761 221° Southwest 308 354 32,000  Level Jacksonville Center
04:29PM 34.5214 -78.4372 218° Southwest 308 354 32,000  Level Jacksonville Center
04:30PM 34.4547 -78.5036 219° Southwest 308 354 32,000  Level Jacksonville Center
04:31PM 34.3903 -78.5697 220° Southwest 308 354 32,000 -600 Level Jacksonville Center
04:32PM 34.3217 -78.6386 220° Southwest 318 366 30,900 -1,380 Descending Jacksonville Center
04:33PM 34.2411 -78.7206 220° Southwest 339 390 29,300 -1,380 Descending Jacksonville Center
04:34PM 34.1664 -78.7944 219° Southwest 351 404 28,200 -660 Descending Jacksonville Center
04:35PM 34.0936 -78.8681 220° Southwest 351 404 28,000 -120 Descending Jacksonville Center
04:36PM 34.0225 -78.9339 218° Southwest 345 397 28,000  Level Jacksonville Center
04:37PM 33.9581 -79.0019 221° Southwest 333 383 28,000  Level Jacksonville Center
04:38PM 33.8911 -79.0675 219° Southwest 321 369 28,000  Level Jacksonville Center
04:39PM 33.8219 -79.1303 217° Southwest 316 364 28,000  Level Jacksonville Center
04:40PM 33.7592 -79.1956 221° Southwest 316 364 28,000  Level Jacksonville Center
04:41PM 33.6983 -79.2531 218° Southwest 316 364 28,000  Level Jacksonville Center
04:42PM 33.6356 -79.3178 221° Southwest 305 351 28,000  Level Jacksonville Center
04:43PM 33.5683 -79.3803 218° Southwest 305 351 28,000  Level Jacksonville Center
04:44PM 33.5056 -79.4453 221° Southwest 305 351 28,000  Level Jacksonville Center
04:45PM 33.4406 -79.5075 219° Southwest 300 345 28,000  Level Jacksonville Center
04:46PM 33.3753 -79.5697 219° Southwest 300 345 28,000  Level Jacksonville Center
04:47PM 33.3122 -79.6317 219° Southwest 300 345 28,000  Level Jacksonville Center
04:48PM 33.2472 -79.6961 220° Southwest 300 345 28,000  Level Jacksonville Center
04:49PM 33.1819 -79.7581 218° Southwest 300 345 28,000  Level Jacksonville Center
04:50PM 33.1186 -79.8197 219° Southwest 300 345 28,000  Level Jacksonville Center
04:51PM 33.0533 -79.8814 218° Southwest 294 338 28,000  Level Jacksonville Center
04:52PM 32.9881 -79.9456 220° Southwest 294 338 28,000  Level Jacksonville Center
04:53PM 32.9247 -80.0069 219° Southwest 294 338 28,000  Level Jacksonville Center
04:54PM 32.8550 -80.0636 214° Southwest 294 338 28,000  Level Jacksonville Center
04:55PM 32.7853 -80.1153 212° Southwest 294 338 28,000  Level Jacksonville Center
04:56PM 32.7156 -80.1667 212° Southwest 300 345 28,000  Level Jacksonville Center
04:57PM 32.6456 -80.2206 213° Southwest 300 345 28,000  Level Jacksonville Center
04:58PM 32.5758 -80.2719 212° Southwest 300 345 28,000  Level Jacksonville Center
04:59PM 32.5103 -80.3331 218° Southwest 300 345 28,000  Level Jacksonville Center
05:00PM 32.4447 -80.3939 218° Southwest 300 345 28,000  Level Jacksonville Center
05:01PM 32.3789 -80.4572 219° Southwest 305 351 28,000  Level Jacksonville Center
05:02PM 32.3133 -80.5156 217° Southwest 299 344 28,000  Level Jacksonville Center
05:03PM 32.2497 -80.5786 220° Southwest 299 344 28,000 180 Level Jacksonville Center
05:04PM 32.1842 -80.6392 218° Southwest 292 336 28,400 600 Climbing Jacksonville Center
05:05PM 32.1267 -80.6969 220° Southwest 292 336 29,200 660 Climbing Jacksonville Center
05:06PM 32.0650 -80.7525 217° Southwest 282 325 29,800 360 Climbing Jacksonville Center
05:07PM 32.0094 -80.8028 218° Southwest 282 325 30,000 60 Climbing Jacksonville Center
05:08PM 31.9394 -80.8703 219° Southwest 298 343 30,000 180 Level Jacksonville Center
05:09PM 31.8736 -80.9306 218° Southwest 298 343 30,400 600 Climbing Jacksonville Center
05:10PM 31.8161 -80.9856 219° Southwest 298 343 31,200 840 Climbing Jacksonville Center
05:11PM 31.7503 -81.0481 219° Southwest 292 336 32,100 780 Climbing Jacksonville Center
05:12PM 31.6883 -81.1031 217° Southwest 292 336 32,800 600 Climbing Jacksonville Center
05:13PM 31.6369 -81.1528 219° Southwest 287 330 33,300 480 Climbing Jacksonville Center
05:14PM 31.5708 -81.2150 219° Southwest 287 330 33,800 360 Climbing Jacksonville Center
05:15PM 31.5131 -81.2647 216° Southwest 282 325 34,100 420 Climbing Jacksonville Center
05:16PM 31.4450 -81.3267 218° Southwest 287 330 34,700 420 Climbing Jacksonville Center
05:17PM 31.3831 -81.3839 218° Southwest 287 330 35,000 120 Climbing Jacksonville Center
05:18PM 31.3211 -81.4481 222° Southwest 300 345 35,000 120 Level Jacksonville Center
05:19PM 31.2550 -81.5072 217° Southwest 300 345 35,300 360 Climbing Jacksonville Center
05:20PM 31.1908 -81.5617 216° Southwest 294 338 35,800 300 Climbing Jacksonville Center
05:21PM 31.1289 -81.6233 220° Southwest 294 338 36,000 60 Climbing Jacksonville Center
05:22PM 31.0647 -81.6800 217° Southwest 294 338 36,000  Level Jacksonville Center
05:23PM 30.9983 -81.7414 218° Southwest 299 344 36,000 -60 Level Jacksonville Center
05:24PM 30.9319 -81.8003 217° Southwest 299 344 35,900  Descending Jacksonville Center
05:25PM 30.8658 -81.8617 219° Southwest 299 344 36,000  Climbing Jacksonville Center
05:26PM 30.8014 -81.9178 217° Southwest 299 344 36,000  Level Jacksonville Center
05:27PM 30.7414 -81.9742 219° Southwest 299 344 36,000  Level Jacksonville Center
05:28PM 30.6750 -82.0328 217° Southwest 299 344 36,000  Level Jacksonville Center
05:29PM 30.6064 -82.0889 215° Southwest 299 344 36,000  Level Jacksonville Center
05:30PM 30.5125 -82.1042 188° South 309 356 36,000 -60 Level Jacksonville Center
05:31PM 30.4144 -82.0881 172° South 344 396 35,900  Descending Jacksonville Center
05:32PM 30.3225 -82.0911 182° South 339 390 36,000  Climbing Jacksonville Center
05:33PM 30.2306 -82.0825 175° South 344 396 36,000 -120 Level Jacksonville Center
05:34PM 30.1367 -82.0831 180° South 343 395 35,800 -540 Descending Jacksonville Center
05:35PM 30.0531 -82.0911 185° South 338 389 35,000 -420 Descending Jacksonville Center
05:36PM 29.9592 -82.1061 188° South 338 389 35,000  Level Jacksonville Center
05:37PM 29.8675 -82.1142 184° South 338 389 35,000  Level Jacksonville Center
05:38PM 29.7797 -82.1244 186° South 326 375 35,000  Level Jacksonville Center
05:39PM 29.6900 -82.1300 183° South 326 375 35,000  Level Jacksonville Center
05:40PM 29.6044 -82.1400 186° South 321 369 35,000  Level Jacksonville Center
05:41PM 29.5147 -82.1503 186° South 321 369 35,000  Level Jacksonville Center
05:42PM 29.4294 -82.1581 185° South 321 369 35,000  Level Jacksonville Center
05:43PM 29.3397 -82.1661 184° South 321 369 35,000  Level Jacksonville Center
05:44PM 29.2542 -82.1761 186° South 326 375 35,000  Level Jacksonville Center
05:45PM 29.1644 -82.1864 186° South 326 375 35,000  Level Jacksonville Center
05:46PM 29.0747 -82.1942 184° South 326 375 35,000  Level Jacksonville Center
05:47PM 28.9850 -82.2042 186° South 326 375 35,000  Level Jacksonville Center
05:48PM 28.8994 -82.2167 187° South 326 375 35,000  Level Jacksonville Center
05:49PM 28.8097 -82.2267 186° South 326 375 35,000  Level Jacksonville Center
05:50PM 28.7222 -82.2367 186° South 326 375 35,000  Level Jacksonville Center
05:51PM 28.6303 -82.2444 184° South 332 382 35,000  Level Jacksonville Center
05:52PM 28.5406 -82.2544 186° South 332 382 35,000  Level Jacksonville Center
05:53PM 28.4489 -82.2622 184° South 332 382 35,000  Level Jacksonville Center
05:54PM 28.3592 -82.2744 187° South 332 382 35,000  Level Jacksonville Center
05:56PM 28.2147 -82.2892 185° South 327 376 35,000  Level Miami Center
05:57PM 28.1267 -82.2967 184° South 332 382 35,000  Level Miami Center
05:58PM 28.0347 -82.3042 184° South 332 382 35,000  Level Miami Center
05:59PM 27.9375 -82.2783 167° South 338 389 35,000  Level Miami Center
06:00PM 27.8408 -82.2431 162° South 354 407 35,000  Level Miami Center
06:01PM 27.7461 -82.2106 163° South 359 413 35,000  Level Miami Center
06:02PM 27.6392 -82.1703 162° South 359 413 35,000 -840 Level Miami Center
06:03PM 27.5381 -82.1375 164° South 365 420 33,400 -1,860 Descending Miami Center
06:04PM 27.4289 -82.0997 163° South 392 451 31,300 -2,160 Descending Miami Center
06:05PM 27.3278 -82.0672 164° South 419 482 29,100 -2,160 Descending Miami Center
06:06PM 27.2186 -82.0272 162° South 419 482 27,000 -2,280 Descending Miami Center
06:07PM 27.1031 -81.9894 164° South 404 465 24,600 -2,040 Descending Miami Center
06:08PM 27.0247 -81.9650 164° South 379 436 23,000 -1,620 Descending Miami Center
06:09PM 26.9236 -81.9303 163° South 365 420 21,400 -1,560 Descending Miami Center
06:10PM 26.8506 -81.8644 141° Southeast 336 387 19,900 -1,200 Descending Miami Center
06:11PM 26.7803 -81.7892 136° Southeast 344 396 19,000 -480 Descending Miami Center
06:12PM 26.7117 -81.7167 137° Southeast 344 396 19,000  Level Miami Center
06:13PM 26.6919 -81.6183 103° East 293 337 19,000  Level Miami Center
06:14PM 26.7133 -81.5353 74° East 281 323 19,000  Level Miami Center
06:15PM 26.7350 -81.4433 75° East 290 334 19,000 -1,140 Level Miami Center
06:16PM 26.7592 -81.3419 75° East 301 346 16,800 -1,980 Descending Miami Center
06:17PM 26.7808 -81.2519 75° East 295 339 15,100 -2,100 Descending Miami Center
06:18PM 26.7725 -81.1750 97° East 265 305 12,700 -2,160 Descending Miami Center
06:19PM 26.7472 -81.1111 114° Southeast 244 281 10,800 -2,160 Descending Miami Center
06:20PM 26.7242 -81.0431 111° Southeast 239 275 8,400 -1,920 Descending Miami Center
06:21PM 26.6992 -80.9700 111° Southeast 231 266 7,000 -720 Descending Miami Center
06:22PM 26.6719 -80.9017 114° Southeast 231 266 7,000  Level Miami Center
06:23PM 26.6506 -80.8406 111° Southeast 236 272 7,000  Level Miami Center
06:24PM 26.6272 -80.7722 111° Southeast 236 272 7,000  Level Miami Center
06:25PM 26.5919 -80.6922 116° Southeast 246 283 7,000 -300 Level Miami Center
06:26PM 26.5667 -80.6217 112° Southeast 265 305 6,400 -1,380 Descending Miami Center
06:27PM 26.5353 -80.5372 113° Southeast 271 312 4,300 -1,740 Descending Miami Center
06:28PM 26.5139 -80.4761 111° Southeast 251 289 3,000 -1,200 Descending Miami Center
06:29PM 26.4844 -80.3986 113° Southeast 238 274 2,000 -780 Descending Miami Center
06:30PM 26.4631 -80.3378 111° Southeast 232 267 1,500 -300 Descending Miami Center
06:31PM 26.4392 -80.2789 114° Southeast 212 244 1,500  Level Miami Center
06:33PM 26.3889 -80.1329 111° Southeast  Level FlightAware Approximate
06:40PM 26.3785 -80.1077 138° Southeast  Level Estimated
06:41PM 26.3785 -80.1077 138° Southeast  Level Estimated
06:42PM 26.3785 -80.1077 138° Southeast  Level Estimated
06:43PM 26.3785 -80.1077 138° Southeast  Level Estimated
06:44PM 26.3785 -80.1077 138° Southeast  Level Estimated